createdAt,value
2023-04-09T00:14:43.184Z,7.8
2023-04-09T00:29:39.366Z,7.89
2023-04-09T00:44:35.826Z,7.48
2023-04-09T00:59:31.916Z,7.61
2023-04-09T01:14:27.631Z,7.72
2023-04-09T01:29:23.511Z,8.03
2023-04-09T01:44:20.135Z,8.1
2023-04-09T01:59:16.524Z,8.11
2023-04-09T02:14:12.779Z,8.15
2023-04-09T02:29:08.641Z,7.44
2023-04-09T02:44:04.678Z,7.78
2023-04-09T03:13:57.394Z,7.42
2023-04-09T03:28:53.489Z,7.51
2023-04-09T03:43:49.497Z,7.24
2023-04-09T03:58:46.178Z,7.3
2023-04-09T04:13:42.200Z,7.12
2023-04-09T04:28:38.350Z,6.92
2023-04-09T04:43:34.435Z,6.24
2023-04-09T04:58:30.692Z,6.18
2023-04-09T05:13:26.668Z,5.74
2023-04-09T05:28:22.819Z,5.74
2023-04-09T05:43:19.333Z,6.38
2023-04-09T05:58:15.907Z,6.91
2023-04-09T06:13:12.786Z,7.61
2023-04-09T06:28:09.307Z,8.29
2023-04-09T06:43:05.829Z,8.74
2023-04-09T06:58:02.287Z,9.08
2023-04-09T07:12:58.550Z,9.66
2023-04-09T07:27:55.009Z,10.14
2023-04-09T07:42:51.676Z,10.45
2023-04-09T07:57:48.134Z,10.87
2023-04-09T08:12:44.266Z,11.46
2023-04-09T08:27:41.126Z,11.87
2023-04-09T08:42:37.050Z,11.99
2023-04-09T08:57:33.463Z,13.02
2023-04-09T09:12:30.091Z,13.74
2023-04-09T09:27:26.983Z,14.05
2023-04-09T09:42:23.433Z,14.83
2023-04-09T09:57:20.825Z,14.6
2023-04-09T10:12:17.827Z,15.28
2023-04-09T10:27:16.378Z,13.77
2023-04-09T10:42:11.166Z,14.85
2023-04-09T10:57:07.724Z,15.62
2023-04-09T11:12:04.384Z,16.69
2023-04-09T11:27:00.788Z,15.93
2023-04-09T11:41:57.322Z,15.76
2023-04-09T11:56:53.911Z,14.69
2023-04-09T12:11:50.313Z,15.25
2023-04-09T12:26:47.124Z,15.94
2023-04-09T12:41:43.118Z,15.22
2023-04-09T12:56:39.260Z,14.94
2023-04-09T13:11:35.042Z,14.56
2023-04-09T13:26:31.116Z,15.82
2023-04-09T13:41:29.366Z,14.75
2023-04-09T13:56:24.197Z,15.33
2023-04-09T14:11:20.201Z,15.66
2023-04-09T14:26:16.512Z,14.92
2023-04-09T14:41:12.534Z,16.37
2023-04-09T14:56:09.280Z,15.15
2023-04-09T15:11:05.266Z,14.97
2023-04-09T15:26:01.310Z,15.04
2023-04-09T15:40:57.762Z,16.05
2023-04-09T15:55:54.493Z,16.05
2023-04-09T16:10:50.419Z,15.54
2023-04-09T16:25:46.454Z,16.3
2023-04-09T16:40:43.001Z,16.25
2023-04-09T16:55:38.825Z,16.04
2023-04-09T17:10:34.551Z,16.1
2023-04-09T17:25:30.573Z,15.12
2023-04-09T17:40:26.653Z,14.33
2023-04-09T17:55:22.834Z,13.25
2023-04-09T18:10:18.113Z,12.47
2023-04-09T18:25:14.020Z,11.58
2023-04-09T18:40:10.179Z,10.73
2023-04-09T18:55:06.019Z,10.21
2023-04-09T19:10:01.995Z,9.49
2023-04-09T19:24:57.844Z,8.54
2023-04-09T19:39:53.322Z,8.51
2023-04-09T19:54:49.452Z,8.11
2023-04-09T20:09:44.838Z,7.71
2023-04-09T20:24:40.727Z,7.89
2023-04-09T20:39:36.847Z,7.65
2023-04-09T20:54:33.031Z,6.92
2023-04-09T21:09:28.511Z,6.66
2023-04-09T21:24:24.189Z,6.63
2023-04-09T21:39:20.363Z,6.07
2023-04-09T21:54:16.481Z,5.57
2023-04-09T22:09:12.744Z,5.02
2023-04-09T22:24:08.615Z,4.87
2023-04-09T22:39:04.370Z,4.8
2023-04-09T22:54:00.527Z,4.52
2023-04-09T23:08:56.848Z,4.73
2023-04-09T23:23:53.641Z,4.38
2023-04-09T23:38:48.978Z,4.44
2023-04-09T23:53:45.201Z,4.02
